sensor_id;sensor_type;location;lat;lon;timestamp;P1;durP1;ratioP1;P2;durP2;ratioP2
6145;SDS011;3104;50.348;7.620;2022-08-19T00:00:03;20.10;;;18.40;;
6145;SDS011;3104;50.348;7.620;2022-08-19T00:02:32;21.10;;;19.40;;
6145;SDS011;3104;50.348;7.620;2022-08-19T00:04:57;20.43;;;18.67;;
6145;SDS011;3104;50.348;7.620;2022-08-19T00:07:23;18.90;;;17.50;;
6145;SDS011;3104;50.348;7.620;2022-08-19T00:09:48;20.03;;;18.33;;
6145;SDS011;3104;50.348;7.620;2022-08-19T00:12:14;20.37;;;18.77;;
6145;SDS011;3104;50.348;7.620;2022-08-19T00:14:40;18.93;;;17.27;;
6145;SDS011;3104;50.348;7.620;2022-08-19T00:17:06;21.73;;;19.90;;
6145;SDS011;3104;50.348;7.620;2022-08-19T00:19:33;20.20;;;18.53;;
6145;SDS011;3104;50.348;7.620;2022-08-19T00:22:00;20.70;;;19.00;;
6145;SDS011;3104;50.348;7.620;2022-08-19T00:24:27;17.20;;;15.83;;
6145;SDS011;3104;50.348;7.620;2022-08-19T00:26:53;18.47;;;16.87;;
6145;SDS011;3104;50.348;7.620;2022-08-19T00:29:20;21.53;;;19.40;;
6145;SDS011;3104;50.348;7.620;2022-08-19T00:31:47;19.93;;;18.13;;
6145;SDS011;3104;50.348;7.620;2022-08-19T00:34:14;20.43;;;18.73;;
6145;SDS011;3104;50.348;7.620;2022-08-19T00:36:40;19.50;;;17.83;;
6145;SDS011;3104;50.348;7.620;2022-08-19T00:39:07;19.70;;;17.90;;
6145;SDS011;3104;50.348;7.620;2022-08-19T00:41:34;19.93;;;18.20;;
6145;SDS011;3104;50.348;7.620;2022-08-19T00:44:04;19.80;;;18.20;;
6145;SDS011;3104;50.348;7.620;2022-08-19T00:46:35;19.77;;;18.07;;
6145;SDS011;3104;50.348;7.620;2022-08-19T00:49:02;17.90;;;16.50;;
6145;SDS011;3104;50.348;7.620;2022-08-19T00:51:35;19.53;;;18.03;;
6145;SDS011;3104;50.348;7.620;2022-08-19T00:54:01;19.20;;;17.70;;
6145;SDS011;3104;50.348;7.620;2022-08-19T00:56:27;18.50;;;17.03;;
6145;SDS011;3104;50.348;7.620;2022-08-19T00:58:55;20.20;;;18.57;;
6145;SDS011;3104;50.348;7.620;2022-08-19T01:01:23;20.80;;;18.70;;
6145;SDS011;3104;50.348;7.620;2022-08-19T01:03:49;19.30;;;17.80;;
6145;SDS011;3104;50.348;7.620;2022-08-19T01:06:14;19.43;;;17.80;;
6145;SDS011;3104;50.348;7.620;2022-08-19T01:08:40;18.87;;;17.17;;
6145;SDS011;3104;50.348;7.620;2022-08-19T01:11:06;19.60;;;18.00;;
6145;SDS011;3104;50.348;7.620;2022-08-19T01:13:33;18.00;;;16.50;;
6145;SDS011;3104;50.348;7.620;2022-08-19T01:16:01;18.83;;;17.27;;
6145;SDS011;3104;50.348;7.620;2022-08-19T01:18:35;19.63;;;17.97;;
6145;SDS011;3104;50.348;7.620;2022-08-19T01:21:05;18.07;;;16.53;;
6145;SDS011;3104;50.348;7.620;2022-08-19T01:23:36;19.30;;;17.90;;
6145;SDS011;3104;50.348;7.620;2022-08-19T01:26:18;17.70;;;16.30;;
6145;SDS011;3104;50.348;7.620;2022-08-19T01:28:47;19.77;;;18.20;;
6145;SDS011;3104;50.348;7.620;2022-08-19T01:31:18;20.37;;;18.73;;
6145;SDS011;3104;50.348;7.620;2022-08-19T01:33:49;18.13;;;16.63;;
6145;SDS011;3104;50.348;7.620;2022-08-19T01:36:22;19.00;;;17.30;;
6145;SDS011;3104;50.348;7.620;2022-08-19T01:38:51;21.00;;;19.17;;
6145;SDS011;3104;50.348;7.620;2022-08-19T01:41:18;20.27;;;18.70;;
6145;SDS011;3104;50.348;7.620;2022-08-19T01:43:44;18.90;;;17.30;;
6145;SDS011;3104;50.348;7.620;2022-08-19T01:46:10;19.20;;;17.60;;
6145;SDS011;3104;50.348;7.620;2022-08-19T01:48:37;19.30;;;17.50;;
6145;SDS011;3104;50.348;7.620;2022-08-19T01:51:05;20.83;;;19.23;;
6145;SDS011;3104;50.348;7.620;2022-08-19T01:53:31;18.90;;;17.30;;
6145;SDS011;3104;50.348;7.620;2022-08-19T01:55:58;18.97;;;17.33;;
6145;SDS011;3104;50.348;7.620;2022-08-19T01:58:25;21.03;;;19.53;;
6145;SDS011;3104;50.348;7.620;2022-08-19T02:01:12;19.07;;;17.60;;
6145;SDS011;3104;50.348;7.620;2022-08-19T02:03:38;19.33;;;17.50;;
6145;SDS011;3104;50.348;7.620;2022-08-19T02:06:04;17.20;;;15.50;;
6145;SDS011;3104;50.348;7.620;2022-08-19T02:08:31;19.17;;;17.60;;
6145;SDS011;3104;50.348;7.620;2022-08-19T02:10:58;18.23;;;16.70;;
6145;SDS011;3104;50.348;7.620;2022-08-19T02:13:24;18.93;;;17.07;;
6145;SDS011;3104;50.348;7.620;2022-08-19T02:15:51;19.70;;;17.80;;
6145;SDS011;3104;50.348;7.620;2022-08-19T02:18:16;18.93;;;17.33;;
6145;SDS011;3104;50.348;7.620;2022-08-19T02:20:42;19.17;;;17.43;;
6145;SDS011;3104;50.348;7.620;2022-08-19T02:23:09;19.43;;;17.60;;
6145;SDS011;3104;50.348;7.620;2022-08-19T02:25:36;18.60;;;17.00;;
6145;SDS011;3104;50.348;7.620;2022-08-19T02:28:02;20.10;;;18.30;;
6145;SDS011;3104;50.348;7.620;2022-08-19T02:30:28;19.30;;;17.80;;
6145;SDS011;3104;50.348;7.620;2022-08-19T02:32:55;17.43;;;16.03;;
6145;SDS011;3104;50.348;7.620;2022-08-19T02:35:20;18.73;;;17.13;;
6145;SDS011;3104;50.348;7.620;2022-08-19T02:37:47;20.10;;;18.10;;
6145;SDS011;3104;50.348;7.620;2022-08-19T02:40:32;18.67;;;17.17;;
6145;SDS011;3104;50.348;7.620;2022-08-19T02:42:59;18.47;;;16.87;;
6145;SDS011;3104;50.348;7.620;2022-08-19T02:45:26;19.33;;;17.70;;
6145;SDS011;3104;50.348;7.620;2022-08-19T02:47:52;18.87;;;17.37;;
6145;SDS011;3104;50.348;7.620;2022-08-19T02:50:18;17.03;;;15.63;;
6145;SDS011;3104;50.348;7.620;2022-08-19T02:52:44;18.20;;;16.50;;
6145;SDS011;3104;50.348;7.620;2022-08-19T02:55:10;18.80;;;17.30;;
6145;SDS011;3104;50.348;7.620;2022-08-19T02:57:35;18.60;;;16.77;;
6145;SDS011;3104;50.348;7.620;2022-08-19T03:00:03;18.20;;;16.60;;
6145;SDS011;3104;50.348;7.620;2022-08-19T03:02:31;18.40;;;16.83;;
6145;SDS011;3104;50.348;7.620;2022-08-19T03:04:56;19.40;;;17.60;;
6145;SDS011;3104;50.348;7.620;2022-08-19T03:07:22;17.20;;;15.60;;
6145;SDS011;3104;50.348;7.620;2022-08-19T03:09:48;16.53;;;15.23;;
6145;SDS011;3104;50.348;7.620;2022-08-19T03:12:13;16.77;;;15.43;;
6145;SDS011;3104;50.348;7.620;2022-08-19T03:14:39;17.37;;;16.00;;
6145;SDS011;3104;50.348;7.620;2022-08-19T03:17:04;17.00;;;15.53;;
6145;SDS011;3104;50.348;7.620;2022-08-19T03:19:30;17.67;;;16.17;;
6145;SDS011;3104;50.348;7.620;2022-08-19T03:21:56;17.63;;;16.23;;
6145;SDS011;3104;50.348;7.620;2022-08-19T03:24:22;17.50;;;16.00;;
6145;SDS011;3104;50.348;7.620;2022-08-19T03:26:49;19.30;;;17.67;;
6145;SDS011;3104;50.348;7.620;2022-08-19T03:29:17;18.57;;;16.90;;
6145;SDS011;3104;50.348;7.620;2022-08-19T03:31:44;19.00;;;17.10;;
6145;SDS011;3104;50.348;7.620;2022-08-19T03:34:11;19.00;;;17.50;;
6145;SDS011;3104;50.348;7.620;2022-08-19T03:36:38;19.17;;;17.47;;
6145;SDS011;3104;50.348;7.620;2022-08-19T03:39:05;17.90;;;15.83;;
6145;SDS011;3104;50.348;7.620;2022-08-19T03:41:31;19.40;;;17.70;;
6145;SDS011;3104;50.348;7.620;2022-08-19T03:44:01;18.33;;;16.67;;
6145;SDS011;3104;50.348;7.620;2022-08-19T03:46:29;17.50;;;16.07;;
6145;SDS011;3104;50.348;7.620;2022-08-19T03:48:57;17.50;;;16.00;;
6145;SDS011;3104;50.348;7.620;2022-08-19T03:51:32;17.70;;;16.20;;
6145;SDS011;3104;50.348;7.620;2022-08-19T03:54:01;17.63;;;15.97;;
6145;SDS011;3104;50.348;7.620;2022-08-19T03:56:29;16.67;;;15.17;;
6145;SDS011;3104;50.348;7.620;2022-08-19T03:58:55;16.90;;;15.50;;
6145;SDS011;3104;50.348;7.620;2022-08-19T04:01:23;17.47;;;15.87;;
6145;SDS011;3104;50.348;7.620;2022-08-19T04:03:51;17.13;;;15.73;;
6145;SDS011;3104;50.348;7.620;2022-08-19T04:06:19;17.00;;;15.30;;
6145;SDS011;3104;50.348;7.620;2022-08-19T04:08:51;18.30;;;16.80;;
6145;SDS011;3104;50.348;7.620;2022-08-19T04:11:20;16.90;;;15.50;;
6145;SDS011;3104;50.348;7.620;2022-08-19T04:13:49;15.47;;;14.17;;
6145;SDS011;3104;50.348;7.620;2022-08-19T04:16:16;14.20;;;13.00;;
6145;SDS011;3104;50.348;7.620;2022-08-19T04:18:47;15.63;;;14.33;;
6145;SDS011;3104;50.348;7.620;2022-08-19T04:21:20;16.83;;;15.17;;
6145;SDS011;3104;50.348;7.620;2022-08-19T04:23:49;15.87;;;14.60;;
6145;SDS011;3104;50.348;7.620;2022-08-19T04:26:26;14.77;;;13.60;;
6145;SDS011;3104;50.348;7.620;2022-08-19T04:28:53;15.90;;;14.50;;
6145;SDS011;3104;50.348;7.620;2022-08-19T04:31:24;16.47;;;15.10;;
6145;SDS011;3104;50.348;7.620;2022-08-19T04:33:53;15.97;;;14.67;;
6145;SDS011;3104;50.348;7.620;2022-08-19T04:36:22;14.57;;;13.30;;
6145;SDS011;3104;50.348;7.620;2022-08-19T04:38:54;16.27;;;14.97;;
6145;SDS011;3104;50.348;7.620;2022-08-19T04:41:21;14.50;;;13.13;;
6145;SDS011;3104;50.348;7.620;2022-08-19T04:44:05;17.73;;;14.60;;
6145;SDS011;3104;50.348;7.620;2022-08-19T04:46:32;17.10;;;15.70;;
6145;SDS011;3104;50.348;7.620;2022-08-19T04:48:58;16.27;;;14.97;;
6145;SDS011;3104;50.348;7.620;2022-08-19T04:51:24;17.60;;;16.20;;
6145;SDS011;3104;50.348;7.620;2022-08-19T04:53:50;16.33;;;14.93;;
6145;SDS011;3104;50.348;7.620;2022-08-19T04:56:17;15.93;;;14.43;;
6145;SDS011;3104;50.348;7.620;2022-08-19T04:58:45;15.80;;;14.23;;
6145;SDS011;3104;50.348;7.620;2022-08-19T05:01:12;17.03;;;15.53;;
6145;SDS011;3104;50.348;7.620;2022-08-19T05:03:38;15.80;;;14.50;;
6145;SDS011;3104;50.348;7.620;2022-08-19T05:06:08;16.40;;;15.20;;
6145;SDS011;3104;50.348;7.620;2022-08-19T05:08:36;15.17;;;13.53;;
6145;SDS011;3104;50.348;7.620;2022-08-19T05:11:08;16.10;;;14.80;;
6145;SDS011;3104;50.348;7.620;2022-08-19T05:13:36;16.40;;;15.10;;
6145;SDS011;3104;50.348;7.620;2022-08-19T05:16:02;15.50;;;14.30;;
6145;SDS011;3104;50.348;7.620;2022-08-19T05:18:28;16.40;;;14.90;;
6145;SDS011;3104;50.348;7.620;2022-08-19T05:21:13;16.43;;;15.13;;
6145;SDS011;3104;50.348;7.620;2022-08-19T05:24:00;15.97;;;14.67;;
6145;SDS011;3104;50.348;7.620;2022-08-19T05:26:27;16.27;;;14.93;;
6145;SDS011;3104;50.348;7.620;2022-08-19T05:28:53;18.00;;;16.20;;
6145;SDS011;3104;50.348;7.620;2022-08-19T05:31:19;18.87;;;16.13;;
6145;SDS011;3104;50.348;7.620;2022-08-19T05:33:45;19.17;;;17.47;;
6145;SDS011;3104;50.348;7.620;2022-08-19T05:36:17;18.70;;;16.90;;
6145;SDS011;3104;50.348;7.620;2022-08-19T05:38:46;15.50;;;14.00;;
6145;SDS011;3104;50.348;7.620;2022-08-19T05:41:14;16.37;;;14.90;;
6145;SDS011;3104;50.348;7.620;2022-08-19T05:43:41;18.47;;;16.87;;
6145;SDS011;3104;50.348;7.620;2022-08-19T05:46:07;16.73;;;15.33;;
6145;SDS011;3104;50.348;7.620;2022-08-19T05:48:33;17.37;;;15.77;;
6145;SDS011;3104;50.348;7.620;2022-08-19T05:51:06;16.83;;;15.33;;
6145;SDS011;3104;50.348;7.620;2022-08-19T05:53:33;17.93;;;16.40;;
6145;SDS011;3104;50.348;7.620;2022-08-19T05:56:03;20.57;;;18.67;;
6145;SDS011;3104;50.348;7.620;2022-08-19T05:58:30;19.27;;;17.57;;
6145;SDS011;3104;50.348;7.620;2022-08-19T06:00:57;19.77;;;18.07;;
6145;SDS011;3104;50.348;7.620;2022-08-19T06:03:29;19.80;;;18.20;;
6145;SDS011;3104;50.348;7.620;2022-08-19T06:05:58;21.10;;;19.07;;
6145;SDS011;3104;50.348;7.620;2022-08-19T06:08:24;20.63;;;18.77;;
6145;SDS011;3104;50.348;7.620;2022-08-19T06:10:51;19.70;;;17.80;;
6145;SDS011;3104;50.348;7.620;2022-08-19T06:13:17;19.43;;;17.83;;
6145;SDS011;3104;50.348;7.620;2022-08-19T06:15:44;20.67;;;18.80;;
6145;SDS011;3104;50.348;7.620;2022-08-19T06:18:11;22.23;;;19.97;;
6145;SDS011;3104;50.348;7.620;2022-08-19T06:20:37;20.47;;;18.67;;
6145;SDS011;3104;50.348;7.620;2022-08-19T06:23:03;20.53;;;18.70;;
6145;SDS011;3104;50.348;7.620;2022-08-19T06:25:28;20.90;;;18.90;;
6145;SDS011;3104;50.348;7.620;2022-08-19T06:27:54;23.37;;;20.73;;
6145;SDS011;3104;50.348;7.620;2022-08-19T06:30:20;19.57;;;17.87;;
6145;SDS011;3104;50.348;7.620;2022-08-19T06:32:46;23.10;;;20.90;;
6145;SDS011;3104;50.348;7.620;2022-08-19T06:35:11;20.43;;;18.63;;
6145;SDS011;3104;50.348;7.620;2022-08-19T06:37:39;22.23;;;20.10;;
6145;SDS011;3104;50.348;7.620;2022-08-19T06:40:05;24.77;;;22.27;;
6145;SDS011;3104;50.348;7.620;2022-08-19T06:42:33;22.00;;;20.00;;
6145;SDS011;3104;50.348;7.620;2022-08-19T06:44:59;22.10;;;20.23;;
6145;SDS011;3104;50.348;7.620;2022-08-19T06:47:28;23.20;;;21.20;;
6145;SDS011;3104;50.348;7.620;2022-08-19T06:49:57;24.07;;;22.07;;
6145;SDS011;3104;50.348;7.620;2022-08-19T06:52:30;21.53;;;19.73;;
6145;SDS011;3104;50.348;7.620;2022-08-19T06:54:57;22.37;;;20.37;;
6145;SDS011;3104;50.348;7.620;2022-08-19T06:57:24;25.07;;;22.73;;
6145;SDS011;3104;50.348;7.620;2022-08-19T06:59:51;24.67;;;22.37;;
6145;SDS011;3104;50.348;7.620;2022-08-19T07:02:17;25.77;;;23.33;;
6145;SDS011;3104;50.348;7.620;2022-08-19T07:04:43;25.43;;;23.10;;
6145;SDS011;3104;50.348;7.620;2022-08-19T07:07:11;25.60;;;23.20;;
6145;SDS011;3104;50.348;7.620;2022-08-19T07:09:39;25.30;;;22.90;;
6145;SDS011;3104;50.348;7.620;2022-08-19T07:12:12;25.80;;;23.40;;
6145;SDS011;3104;50.348;7.620;2022-08-19T07:14:42;26.70;;;23.90;;
6145;SDS011;3104;50.348;7.620;2022-08-19T07:17:08;24.80;;;22.30;;
6145;SDS011;3104;50.348;7.620;2022-08-19T07:19:36;27.17;;;24.60;;
6145;SDS011;3104;50.348;7.620;2022-08-19T07:22:04;25.70;;;23.20;;
6145;SDS011;3104;50.348;7.620;2022-08-19T07:24:31;24.47;;;22.17;;
6145;SDS011;3104;50.348;7.620;2022-08-19T07:26:58;26.67;;;23.30;;
6145;SDS011;3104;50.348;7.620;2022-08-19T07:29:28;27.60;;;24.90;;
6145;SDS011;3104;50.348;7.620;2022-08-19T07:31:55;27.23;;;24.50;;
6145;SDS011;3104;50.348;7.620;2022-08-19T07:34:23;28.47;;;25.87;;
6145;SDS011;3104;50.348;7.620;2022-08-19T07:36:50;29.17;;;26.17;;
6145;SDS011;3104;50.348;7.620;2022-08-19T07:39:18;26.47;;;23.63;;
6145;SDS011;3104;50.348;7.620;2022-08-19T07:41:52;29.67;;;26.77;;
6145;SDS011;3104;50.348;7.620;2022-08-19T07:44:18;29.93;;;27.10;;
6145;SDS011;3104;50.348;7.620;2022-08-19T07:46:47;27.73;;;25.10;;
6145;SDS011;3104;50.348;7.620;2022-08-19T07:49:17;28.80;;;26.03;;
6145;SDS011;3104;50.348;7.620;2022-08-19T07:52:06;31.03;;;27.70;;
6145;SDS011;3104;50.348;7.620;2022-08-19T07:54:33;30.20;;;27.43;;
6145;SDS011;3104;50.348;7.620;2022-08-19T07:57:01;28.97;;;26.17;;
6145;SDS011;3104;50.348;7.620;2022-08-19T07:59:28;30.07;;;27.07;;
6145;SDS011;3104;50.348;7.620;2022-08-19T08:01:54;29.03;;;26.07;;
6145;SDS011;3104;50.348;7.620;2022-08-19T08:04:20;33.27;;;29.97;;
6145;SDS011;3104;50.348;7.620;2022-08-19T08:07:05;30.67;;;27.60;;
6145;SDS011;3104;50.348;7.620;2022-08-19T08:09:50;32.77;;;29.57;;
6145;SDS011;3104;50.348;7.620;2022-08-19T08:12:21;30.87;;;27.93;;
6145;SDS011;3104;50.348;7.620;2022-08-19T08:14:54;33.93;;;30.33;;
6145;SDS011;3104;50.348;7.620;2022-08-19T08:17:29;31.57;;;28.30;;
6145;SDS011;3104;50.348;7.620;2022-08-19T08:19:57;32.97;;;29.60;;
6145;SDS011;3104;50.348;7.620;2022-08-19T08:22:23;31.50;;;28.20;;
6145;SDS011;3104;50.348;7.620;2022-08-19T08:25:15;33.17;;;29.97;;
6145;SDS011;3104;50.348;7.620;2022-08-19T08:27:45;34.13;;;28.83;;
6145;SDS011;3104;50.348;7.620;2022-08-19T08:30:12;32.87;;;29.37;;
6145;SDS011;3104;50.348;7.620;2022-08-19T08:32:41;35.33;;;30.50;;
6145;SDS011;3104;50.348;7.620;2022-08-19T08:35:08;30.93;;;28.10;;
6145;SDS011;3104;50.348;7.620;2022-08-19T08:37:35;32.03;;;28.63;;
6145;SDS011;3104;50.348;7.620;2022-08-19T08:40:06;33.87;;;30.37;;
6145;SDS011;3104;50.348;7.620;2022-08-19T08:42:45;30.60;;;27.80;;
6145;SDS011;3104;50.348;7.620;2022-08-19T08:45:19;31.97;;;28.37;;
6145;SDS011;3104;50.348;7.620;2022-08-19T08:47:47;31.23;;;28.03;;
6145;SDS011;3104;50.348;7.620;2022-08-19T08:53:10;28.13;;;25.40;;
6145;SDS011;3104;50.348;7.620;2022-08-19T08:55:41;27.67;;;25.17;;
6145;SDS011;3104;50.348;7.620;2022-08-19T08:58:09;27.13;;;24.40;;
6145;SDS011;3104;50.348;7.620;2022-08-19T09:00:49;27.67;;;25.07;;
6145;SDS011;3104;50.348;7.620;2022-08-19T09:03:22;26.60;;;24.20;;
6145;SDS011;3104;50.348;7.620;2022-08-19T09:06:02;23.27;;;21.00;;
6145;SDS011;3104;50.348;7.620;2022-08-19T09:08:58;23.13;;;20.80;;
6145;SDS011;3104;50.348;7.620;2022-08-19T09:17:16;20.03;;;18.40;;
6145;SDS011;3104;50.348;7.620;2022-08-19T09:19:49;21.03;;;19.20;;
6145;SDS011;3104;50.348;7.620;2022-08-19T09:22:22;20.63;;;18.83;;
6145;SDS011;3104;50.348;7.620;2022-08-19T09:24:49;21.30;;;19.17;;
6145;SDS011;3104;50.348;7.620;2022-08-19T09:27:17;20.40;;;18.60;;
6145;SDS011;3104;50.348;7.620;2022-08-19T09:29:43;20.77;;;18.97;;
6145;SDS011;3104;50.348;7.620;2022-08-19T09:32:09;20.47;;;18.43;;
6145;SDS011;3104;50.348;7.620;2022-08-19T09:34:35;19.13;;;17.53;;
6145;SDS011;3104;50.348;7.620;2022-08-19T09:37:00;17.23;;;15.63;;
6145;SDS011;3104;50.348;7.620;2022-08-19T09:39:27;18.07;;;16.47;;
6145;SDS011;3104;50.348;7.620;2022-08-19T09:41:55;17.30;;;15.70;;
6145;SDS011;3104;50.348;7.620;2022-08-19T09:44:21;19.60;;;17.80;;
6145;SDS011;3104;50.348;7.620;2022-08-19T09:46:47;17.87;;;16.37;;
6145;SDS011;3104;50.348;7.620;2022-08-19T09:49:12;18.33;;;16.83;;
6145;SDS011;3104;50.348;7.620;2022-08-19T09:51:38;17.47;;;15.80;;
6145;SDS011;3104;50.348;7.620;2022-08-19T09:54:04;17.70;;;16.13;;
6145;SDS011;3104;50.348;7.620;2022-08-19T09:56:30;16.07;;;14.73;;
6145;SDS011;3104;50.348;7.620;2022-08-19T09:58:59;15.97;;;14.60;;
6145;SDS011;3104;50.348;7.620;2022-08-19T10:01:27;16.63;;;15.23;;
6145;SDS011;3104;50.348;7.620;2022-08-19T10:03:54;14.97;;;13.73;;
6145;SDS011;3104;50.348;7.620;2022-08-19T10:06:22;17.00;;;15.43;;
6145;SDS011;3104;50.348;7.620;2022-08-19T10:08:50;13.13;;;12.03;;
6145;SDS011;3104;50.348;7.620;2022-08-19T10:11:18;14.13;;;12.93;;
6145;SDS011;3104;50.348;7.620;2022-08-19T10:13:45;15.57;;;14.07;;
6145;SDS011;3104;50.348;7.620;2022-08-19T10:16:13;14.53;;;13.40;;
6145;SDS011;3104;50.348;7.620;2022-08-19T10:18:41;12.27;;;11.47;;
6145;SDS011;3104;50.348;7.620;2022-08-19T10:21:14;13.50;;;12.50;;
6145;SDS011;3104;50.348;7.620;2022-08-19T10:23:47;14.33;;;11.73;;
6145;SDS011;3104;50.348;7.620;2022-08-19T10:26:15;12.70;;;11.57;;
6145;SDS011;3104;50.348;7.620;2022-08-19T10:28:44;12.73;;;11.83;;
6145;SDS011;3104;50.348;7.620;2022-08-19T10:31:14;13.10;;;12.00;;
6145;SDS011;3104;50.348;7.620;2022-08-19T10:33:42;12.97;;;11.87;;
6145;SDS011;3104;50.348;7.620;2022-08-19T10:36:19;12.77;;;11.47;;
6145;SDS011;3104;50.348;7.620;2022-08-19T10:38:48;12.00;;;10.90;;
6145;SDS011;3104;50.348;7.620;2022-08-19T10:41:17;11.80;;;11.00;;
6145;SDS011;3104;50.348;7.620;2022-08-19T10:43:49;12.33;;;11.23;;
6145;SDS011;3104;50.348;7.620;2022-08-19T10:46:17;12.23;;;11.37;;
6145;SDS011;3104;50.348;7.620;2022-08-19T10:48:43;13.17;;;12.17;;
6145;SDS011;3104;50.348;7.620;2022-08-19T10:51:09;12.93;;;12.03;;
6145;SDS011;3104;50.348;7.620;2022-08-19T10:53:55;14.57;;;13.20;;
6145;SDS011;3104;50.348;7.620;2022-08-19T10:56:21;11.37;;;10.67;;
6145;SDS011;3104;50.348;7.620;2022-08-19T10:59:06;13.57;;;12.47;;
6145;SDS011;3104;50.348;7.620;2022-08-19T11:01:32;11.50;;;10.70;;
6145;SDS011;3104;50.348;7.620;2022-08-19T11:03:59;10.13;;;9.40;;
6145;SDS011;3104;50.348;7.620;2022-08-19T11:06:27;12.50;;;11.50;;
6145;SDS011;3104;50.348;7.620;2022-08-19T11:08:53;12.40;;;11.30;;
6145;SDS011;3104;50.348;7.620;2022-08-19T11:11:19;12.80;;;11.70;;
6145;SDS011;3104;50.348;7.620;2022-08-19T11:13:46;12.60;;;11.60;;
6145;SDS011;3104;50.348;7.620;2022-08-19T11:16:24;12.63;;;11.37;;
6145;SDS011;3104;50.348;7.620;2022-08-19T11:18:52;10.93;;;10.23;;
6145;SDS011;3104;50.348;7.620;2022-08-19T11:21:21;12.43;;;11.53;;
6145;SDS011;3104;50.348;7.620;2022-08-19T11:23:50;10.47;;;9.77;;
6145;SDS011;3104;50.348;7.620;2022-08-19T11:26:18;11.43;;;10.40;;
6145;SDS011;3104;50.348;7.620;2022-08-19T11:28:45;10.53;;;9.93;;
6145;SDS011;3104;50.348;7.620;2022-08-19T11:31:14;12.93;;;11.93;;
6145;SDS011;3104;50.348;7.620;2022-08-19T11:33:42;13.87;;;12.70;;
6145;SDS011;3104;50.348;7.620;2022-08-19T11:36:08;11.93;;;10.87;;
6145;SDS011;3104;50.348;7.620;2022-08-19T11:38:34;11.30;;;10.37;;
6145;SDS011;3104;50.348;7.620;2022-08-19T11:41:02;10.57;;;9.77;;
6145;SDS011;3104;50.348;7.620;2022-08-19T11:43:30;10.93;;;10.13;;
6145;SDS011;3104;50.348;7.620;2022-08-19T11:45:56;12.33;;;11.43;;
6145;SDS011;3104;50.348;7.620;2022-08-19T11:48:23;11.80;;;10.90;;
6145;SDS011;3104;50.348;7.620;2022-08-19T11:50:49;9.50;;;8.60;;
6145;SDS011;3104;50.348;7.620;2022-08-19T11:53:17;11.57;;;10.60;;
6145;SDS011;3104;50.348;7.620;2022-08-19T11:55:44;11.13;;;10.40;;
6145;SDS011;3104;50.348;7.620;2022-08-19T11:58:11;10.30;;;9.50;;
6145;SDS011;3104;50.348;7.620;2022-08-19T12:00:37;10.03;;;9.33;;
6145;SDS011;3104;50.348;7.620;2022-08-19T12:03:04;10.77;;;10.00;;
6145;SDS011;3104;50.348;7.620;2022-08-19T12:05:29;12.53;;;11.30;;
6145;SDS011;3104;50.348;7.620;2022-08-19T12:07:55;9.93;;;9.30;;
6145;SDS011;3104;50.348;7.620;2022-08-19T12:10:21;10.43;;;9.63;;
6145;SDS011;3104;50.348;7.620;2022-08-19T12:12:46;11.17;;;10.13;;
6145;SDS011;3104;50.348;7.620;2022-08-19T12:15:12;10.40;;;9.63;;
6145;SDS011;3104;50.348;7.620;2022-08-19T12:17:39;9.97;;;9.27;;
6145;SDS011;3104;50.348;7.620;2022-08-19T12:20:07;11.57;;;10.60;;
6145;SDS011;3104;50.348;7.620;2022-08-19T12:22:34;10.57;;;9.67;;
6145;SDS011;3104;50.348;7.620;2022-08-19T12:25:04;11.07;;;10.33;;
6145;SDS011;3104;50.348;7.620;2022-08-19T12:27:30;10.80;;;10.10;;
6145;SDS011;3104;50.348;7.620;2022-08-19T12:29:56;10.07;;;9.10;;
6145;SDS011;3104;50.348;7.620;2022-08-19T12:32:22;8.50;;;7.80;;
6145;SDS011;3104;50.348;7.620;2022-08-19T12:34:50;9.70;;;8.70;;
6145;SDS011;3104;50.348;7.620;2022-08-19T12:37:16;8.70;;;8.00;;
6145;SDS011;3104;50.348;7.620;2022-08-19T12:39:41;9.93;;;9.20;;
6145;SDS011;3104;50.348;7.620;2022-08-19T12:42:08;8.63;;;8.03;;
6145;SDS011;3104;50.348;7.620;2022-08-19T12:44:36;10.33;;;9.50;;
6145;SDS011;3104;50.348;7.620;2022-08-19T12:47:04;9.73;;;8.97;;
6145;SDS011;3104;50.348;7.620;2022-08-19T12:49:31;10.47;;;9.47;;
6145;SDS011;3104;50.348;7.620;2022-08-19T12:52:01;10.40;;;9.50;;
6145;SDS011;3104;50.348;7.620;2022-08-19T12:54:28;9.97;;;9.27;;
6145;SDS011;3104;50.348;7.620;2022-08-19T12:56:55;10.50;;;9.80;;
6145;SDS011;3104;50.348;7.620;2022-08-19T12:59:25;9.90;;;9.20;;
6145;SDS011;3104;50.348;7.620;2022-08-19T13:01:51;9.50;;;8.90;;
6145;SDS011;3104;50.348;7.620;2022-08-19T13:04:17;9.87;;;9.00;;
6145;SDS011;3104;50.348;7.620;2022-08-19T13:06:42;9.07;;;8.27;;
6145;SDS011;3104;50.348;7.620;2022-08-19T13:09:08;10.07;;;9.27;;
6145;SDS011;3104;50.348;7.620;2022-08-19T13:11:34;8.70;;;8.10;;
6145;SDS011;3104;50.348;7.620;2022-08-19T13:14:01;10.17;;;9.47;;
6145;SDS011;3104;50.348;7.620;2022-08-19T13:16:27;11.43;;;10.37;;
6145;SDS011;3104;50.348;7.620;2022-08-19T13:18:53;9.67;;;9.07;;
6145;SDS011;3104;50.348;7.620;2022-08-19T13:21:21;9.93;;;9.23;;
6145;SDS011;3104;50.348;7.620;2022-08-19T13:23:49;9.60;;;9.00;;
6145;SDS011;3104;50.348;7.620;2022-08-19T13:26:15;9.47;;;8.63;;
6145;SDS011;3104;50.348;7.620;2022-08-19T13:28:41;10.60;;;9.70;;
6145;SDS011;3104;50.348;7.620;2022-08-19T13:31:28;11.27;;;10.33;;
6145;SDS011;3104;50.348;7.620;2022-08-19T13:34:14;10.00;;;9.20;;
6145;SDS011;3104;50.348;7.620;2022-08-19T13:36:41;8.90;;;8.27;;
6145;SDS011;3104;50.348;7.620;2022-08-19T13:39:08;8.73;;;8.13;;
6145;SDS011;3104;50.348;7.620;2022-08-19T13:41:35;8.57;;;7.97;;
6145;SDS011;3104;50.348;7.620;2022-08-19T13:44:02;8.80;;;8.10;;
6145;SDS011;3104;50.348;7.620;2022-08-19T13:46:28;9.37;;;8.67;;
6145;SDS011;3104;50.348;7.620;2022-08-19T13:48:55;8.10;;;7.50;;
6145;SDS011;3104;50.348;7.620;2022-08-19T13:51:21;8.10;;;7.60;;
6145;SDS011;3104;50.348;7.620;2022-08-19T13:53:47;8.50;;;7.80;;
6145;SDS011;3104;50.348;7.620;2022-08-19T13:56:14;8.20;;;7.60;;
6145;SDS011;3104;50.348;7.620;2022-08-19T13:58:41;8.23;;;7.63;;
6145;SDS011;3104;50.348;7.620;2022-08-19T14:01:07;9.20;;;8.37;;
6145;SDS011;3104;50.348;7.620;2022-08-19T14:03:33;8.10;;;7.60;;
6145;SDS011;3104;50.348;7.620;2022-08-19T14:05:59;8.20;;;7.70;;
6145;SDS011;3104;50.348;7.620;2022-08-19T14:08:25;8.93;;;8.23;;
6145;SDS011;3104;50.348;7.620;2022-08-19T14:10:52;8.63;;;7.93;;
6145;SDS011;3104;50.348;7.620;2022-08-19T14:13:24;7.70;;;7.20;;
6145;SDS011;3104;50.348;7.620;2022-08-19T14:15:50;7.30;;;6.80;;
6145;SDS011;3104;50.348;7.620;2022-08-19T14:18:17;8.47;;;7.97;;
6145;SDS011;3104;50.348;7.620;2022-08-19T14:20:43;7.77;;;7.27;;
6145;SDS011;3104;50.348;7.620;2022-08-19T14:23:10;9.30;;;7.63;;
6145;SDS011;3104;50.348;7.620;2022-08-19T14:25:38;7.70;;;7.10;;
6145;SDS011;3104;50.348;7.620;2022-08-19T14:28:04;8.33;;;7.73;;
6145;SDS011;3104;50.348;7.620;2022-08-19T14:30:31;8.00;;;7.13;;
6145;SDS011;3104;50.348;7.620;2022-08-19T14:32:58;9.33;;;8.60;;
6145;SDS011;3104;50.348;7.620;2022-08-19T14:35:26;8.40;;;7.80;;
6145;SDS011;3104;50.348;7.620;2022-08-19T14:37:53;8.53;;;7.60;;
6145;SDS011;3104;50.348;7.620;2022-08-19T14:40:19;9.30;;;8.57;;
6145;SDS011;3104;50.348;7.620;2022-08-19T14:42:46;9.00;;;8.10;;
6145;SDS011;3104;50.348;7.620;2022-08-19T14:45:13;8.80;;;8.20;;
6145;SDS011;3104;50.348;7.620;2022-08-19T14:47:39;8.97;;;8.37;;
6145;SDS011;3104;50.348;7.620;2022-08-19T14:50:08;9.67;;;8.90;;
6145;SDS011;3104;50.348;7.620;2022-08-19T14:52:36;8.67;;;7.87;;
6145;SDS011;3104;50.348;7.620;2022-08-19T14:55:02;8.37;;;7.77;;
6145;SDS011;3104;50.348;7.620;2022-08-19T14:57:29;8.70;;;8.10;;
6145;SDS011;3104;50.348;7.620;2022-08-19T14:59:55;10.57;;;9.60;;
6145;SDS011;3104;50.348;7.620;2022-08-19T15:02:22;9.73;;;9.13;;
6145;SDS011;3104;50.348;7.620;2022-08-19T15:04:47;10.43;;;9.73;;
6145;SDS011;3104;50.348;7.620;2022-08-19T15:07:13;10.50;;;9.80;;